Flight Track Log - Related Links

Times and Time Zones

All times are in EDT time to prevent confusion due to time zone crossing. See the RPA3242 flight status page for this flight to view local times or setup timezone preferences in your user account.

Time Position Orientation Groundspeed Altitude Reporting Facility
EDT Latitude Longitude Course Direction KTS MPH feet Rate Location/Type
Thu 09:27:21 PM 39.8667 -75.2833 37° Northeast 139 160 1,300  Level Philadelphia TRACON
Thu 09:28:15 PM 39.8167 -75.3000 194° South 217 250 2,800 2,118 Climbing Philadelphia TRACON
Thu 09:29:00 PM 39.8137 -74.8519 105° East  Level FlightAware Approximate
Thu 09:29:03 PM 39.7667 -75.3333 207° Southwest 275 316 4,900  Level Philadelphia TRACON
Thu 09:30:00 PM 39.7880 -74.7234 105° East  Level FlightAware Approximate
Thu 09:30:09 PM 39.7167 -75.2667 134° Southeast 303 349 8,900  Level Philadelphia TRACON
Thu 09:31:00 PM 39.8494 -74.6340 37° Northeast  Level FlightAware Approximate
Thu 09:31:09 PM 39.7333 -75.1667 78° East 342 394 11,200  Level Philadelphia TRACON
Thu 09:32:00 PM 39.9337 -74.5663 37° Northeast  Level FlightAware Approximate
Thu 09:32:03 PM 39.7500 -75.0500 79° East 359 413 12,000  Level Philadelphia TRACON
Thu 09:34:29 PM 39.7922 -74.7450 80° East 368 423 12,000 490 Level New York Center
Thu 09:35:31 PM 39.8600 -74.6542 46° Northeast 348 400 13,700 2,250 Climbing New York Center
Thu 09:36:29 PM 39.9375 -74.5772 37° Northeast 339 390 16,500 2,746 Climbing New York Center
Thu 09:37:29 PM 40.0147 -74.5111 33° Northeast 355 409 19,100 2,529 Climbing New York Center
Thu 09:38:30 PM 40.1031 -74.4153 40° Northeast 367 422 21,600 2,331 Climbing New York Center
Thu 09:39:30 PM 40.1892 -74.3250 39° Northeast 377 434 23,800 1,220 Climbing New York Center
Thu 09:40:28 PM 40.2814 -74.2425 34° Northeast 382 440 24,000 58 Climbing New York Center
Thu 09:42:56 PM 40.5108 -74.0669 30° Northeast 393 452 24,000  Level Boston Center
Thu 09:43:56 PM 40.6033 -74.0119 24° Northeast 393 452 24,000  Level Boston Center
Thu 09:44:56 PM 40.6983 -73.9375 31° Northeast 393 452 24,000  Level Boston Center
Thu 09:45:56 PM 40.7950 -73.8603 31° Northeast 398 458 24,000  Level Boston Center
Thu 09:46:56 PM 40.8797 -73.7578 42° Northeast 403 464 24,000  Level Boston Center
Thu 09:47:56 PM 40.9642 -73.6522 43° Northeast 409 471 24,000  Level Boston Center
Thu 09:48:56 PM 41.0486 -73.5519 42° Northeast 403 464 24,000  Level Boston Center
Thu 09:49:56 PM 41.1414 -73.4489 40° Northeast 397 457 24,000  Level Boston Center
Thu 09:50:56 PM 41.2456 -73.4394 North 359 413 24,000 -2,250 Level Boston Center
Thu 09:51:56 PM 41.3392 -73.4492 356° North 371 427 19,500 -2,700 Descending Boston Center
Thu 09:52:56 PM 41.4392 -73.4592 356° North 423 487 18,600 -950 Descending Boston Center
Thu 09:53:56 PM 41.5286 -73.4689 355° North 362 417 17,600 -1,050 Descending Boston Center
Thu 09:54:56 PM 41.6203 -73.4786 355° North 328 377 16,500 -1,000 Descending Boston Center
Thu 09:55:56 PM 41.7097 -73.5022 349° North 328 377 15,600 -1,350 Descending Boston Center
Thu 09:56:56 PM 41.7950 -73.5261 348° North 323 372 13,800 -1,780 Descending Boston Center
Thu 09:57:27 PM 41.8406 -73.5436 344° North 315 362 12,900 -1,636 Descending Boston Center
Thu 09:57:51 PM 41.8739 -73.5469 356° North 318 366 12,300 -1,281 Descending Boston Center
Thu 09:58:56 PM 41.9633 -73.5736 348° North 309 356 11,000 -624 Descending Boston Center
Thu 09:59:56 PM 42.0422 -73.5975 347° North 298 343 11,000  Level Boston Center
Thu 10:00:53 PM 42.1211 -73.6183 349° North 299 344 11,000 -51 Level Boston Center
Thu 10:01:54 PM 42.1961 -73.6422 347° North 277 319 10,900 -992 Descending Boston Center
Thu 10:02:54 PM 42.2686 -73.6717 343° North 261 300 9,000 -1,623 Descending Boston Center
Thu 10:03:56 PM 42.3206 -73.6925 343° North 269 310 7,600 -1,869 Descending Boston Center
Thu 10:04:56 PM 42.4078 -73.7308 342° North 252 290 5,200 -1,600 Descending Boston Center
Thu 10:05:56 PM 42.4636 -73.7544 343° North 227 261 4,400 -1,148 Descending Boston Center
Thu 10:06:51 PM 42.5092 -73.7778 339° North 179 206 3,000 -939 Descending Boston Center
Thu 10:07:51 PM 42.5569 -73.7986 342° North 183 211 2,600 -198 Descending Boston Center
Thu 10:08:52 PM 42.6089 -73.8025 357° North 171 197 2,600 -48 Level Boston Center
Thu 10:09:56 PM 42.6608 -73.8206 346° North 181 208 2,500 -744 Descending Boston Center
Thu 10:10:53 PM 42.6944 -73.8044 19° North 140 161 1,100 -1,017 Descending Boston Center
Thu 10:11:54 PM 42.7297 -73.8081 356° North 119 137 500 -590 Descending Boston Center

Login

Don't have an account? Register now (free) for customized features, flight alerts, and more!